UAL1497 KIAH-TJSJ
Flight info
| Callsign | UAL1497 |
|---|---|
| Flight time | 3h 36m |
| Altitude | 37000 |
| Route | MMUGS4 LLA DCT LEV Y290 BEANO BEANO3 |
| Aircraft | B739/M-SDE2E3FGHIRWXY/LB1 |
Departure
| Time | 2026-05-05 17:50 |
|---|---|
| Airport | George Bush Intercontinental Airport (KIAH) |
Arrival
| Time | 2026-05-05 21:27 |
|---|---|
| Airport | Luis Munoz Marin International Airport (TJSJ) |
| Time | Latitude | Longitude | Altitude | Speed | Heading |
|---|---|---|---|---|---|
| 2026-05-05 17:23 | 29.98900 | -95.34099 | 106 ft | 0 kts | 240° |
| 2026-05-05 17:41 | 29.98909 | -95.34080 | 106 ft | 2 kts | 240° |
| 2026-05-05 17:42 | 29.98919 | -95.34056 | 105 ft | 4 kts | 258° |
| 2026-05-05 17:42 | 29.98918 | -95.34029 | 106 ft | 4 kts | 304° |
| 2026-05-05 17:42 | 29.98900 | -95.34016 | 106 ft | 4 kts | 360° |
| 2026-05-05 17:42 | 29.98876 | -95.34016 | 105 ft | 1 kts | 360° |
| 2026-05-05 17:44 | 29.98879 | -95.34016 | 105 ft | 2 kts | 360° |
| 2026-05-05 17:44 | 29.98928 | -95.34016 | 106 ft | 12 kts | 360° |
| 2026-05-05 17:45 | 29.99026 | -95.34018 | 106 ft | 16 kts | 350° |
| 2026-05-05 17:45 | 29.99088 | -95.34106 | 106 ft | 15 kts | 273° |
| 2026-05-05 17:45 | 29.99086 | -95.34225 | 106 ft | 15 kts | 269° |
| 2026-05-05 17:45 | 29.99084 | -95.34346 | 106 ft | 15 kts | 269° |
| 2026-05-05 17:46 | 29.99084 | -95.34466 | 106 ft | 15 kts | 270° |
| 2026-05-05 17:46 | 29.99085 | -95.34581 | 106 ft | 14 kts | 270° |
| 2026-05-05 17:46 | 29.99084 | -95.34693 | 106 ft | 14 kts | 270° |
| 2026-05-05 17:46 | 29.99085 | -95.34804 | 106 ft | 0 kts | 270° |
| 2026-05-05 17:47 | 29.99085 | -95.34823 | 106 ft | 6 kts | 270° |
| 2026-05-05 17:47 | 29.99085 | -95.34885 | 106 ft | 8 kts | 271° |
| 2026-05-05 17:47 | 29.99087 | -95.34948 | 106 ft | 8 kts | 272° |
| 2026-05-05 17:47 | 29.99089 | -95.35028 | 106 ft | 13 kts | 270° |
| 2026-05-05 17:48 | 29.99090 | -95.35141 | 106 ft | 15 kts | 270° |
| 2026-05-05 17:48 | 29.99090 | -95.35274 | 106 ft | 17 kts | 270° |
| 2026-05-05 17:48 | 29.99090 | -95.35408 | 106 ft | 16 kts | 270° |
| 2026-05-05 17:48 | 29.99023 | -95.35485 | 106 ft | 16 kts | 184° |
| 2026-05-05 17:49 | 29.98918 | -95.35501 | 106 ft | 15 kts | 214° |
| 2026-05-05 17:49 | 29.98863 | -95.35599 | 106 ft | 14 kts | 242° |
| 2026-05-05 17:49 | 29.98816 | -95.35700 | 107 ft | 15 kts | 242° |
| 2026-05-05 17:49 | 29.98725 | -95.35746 | 107 ft | 27 kts | 159° |
| 2026-05-05 17:50 | 29.98347 | -95.35517 | 105 ft | 95 kts | 152° |
| 2026-05-05 17:50 | 29.97594 | -95.35057 | 106 ft | 148 kts | 152° |
| 2026-05-05 17:50 | 29.96584 | -95.34457 | 323 ft | 173 kts | 155° |
| 2026-05-05 17:50 | 29.95497 | -95.33798 | 931 ft | 176 kts | 145° |
| 2026-05-05 17:51 | 29.94683 | -95.32695 | 1534 ft | 185 kts | 128° |
| 2026-05-05 17:51 | 29.93931 | -95.31444 | 1967 ft | 200 kts | 132° |
| 2026-05-05 17:51 | 29.93040 | -95.30094 | 2141 ft | 222 kts | 133° |
| 2026-05-05 17:51 | 29.92099 | -95.28693 | 2403 ft | 236 kts | 133° |
| 2026-05-05 17:52 | 29.91056 | -95.27152 | 2643 ft | 252 kts | 131° |
| 2026-05-05 17:52 | 29.89952 | -95.25528 | 3075 ft | 262 kts | 133° |
| 2026-05-05 17:52 | 29.88826 | -95.23872 | 3708 ft | 261 kts | 133° |
| 2026-05-05 17:52 | 29.87762 | -95.22200 | 4240 ft | 262 kts | 131° |
| 2026-05-05 17:53 | 29.86710 | -95.20491 | 4812 ft | 267 kts | 130° |
| 2026-05-05 17:53 | 29.85624 | -95.18733 | 5413 ft | 272 kts | 130° |
| 2026-05-05 17:53 | 29.84510 | -95.16939 | 5863 ft | 279 kts | 129° |
| 2026-05-05 17:53 | 29.83371 | -95.15109 | 6426 ft | 281 kts | 129° |
| 2026-05-05 17:54 | 29.82430 | -95.13098 | 6873 ft | 293 kts | 107° |
| 2026-05-05 17:54 | 29.82196 | -95.10747 | 7408 ft | 299 kts | 95° |
| 2026-05-05 17:54 | 29.82122 | -95.08335 | 7933 ft | 304 kts | 94° |
| 2026-05-05 17:54 | 29.82050 | -95.05887 | 8485 ft | 307 kts | 94° |
| 2026-05-05 17:55 | 29.81966 | -95.03440 | 9125 ft | 308 kts | 93° |
| 2026-05-05 17:55 | 29.81869 | -95.00949 | 9646 ft | 313 kts | 93° |
| 2026-05-05 17:55 | 29.81764 | -94.98443 | 10204 ft | 314 kts | 95° |
| 2026-05-05 17:55 | 29.81497 | -94.95900 | 10438 ft | 329 kts | 100° |
| 2026-05-05 17:56 | 29.81075 | -94.93240 | 10609 ft | 345 kts | 102° |
| 2026-05-05 17:56 | 29.80610 | -94.90496 | 10752 ft | 362 kts | 102° |
| 2026-05-05 17:56 | 29.80124 | -94.87585 | 10860 ft | 378 kts | 101° |
| 2026-05-05 17:56 | 29.79633 | -94.84552 | 10991 ft | 392 kts | 101° |
| 2026-05-05 17:57 | 29.79138 | -94.81419 | 11165 ft | 403 kts | 101° |
| 2026-05-05 17:57 | 29.78637 | -94.78203 | 11403 ft | 411 kts | 101° |
| 2026-05-05 17:57 | 29.78130 | -94.74941 | 11705 ft | 417 kts | 100° |
| 2026-05-05 17:57 | 29.77620 | -94.71673 | 12280 ft | 414 kts | 100° |
| 2026-05-05 17:58 | 29.77124 | -94.68396 | 12677 ft | 417 kts | 99° |
| 2026-05-05 17:58 | 29.76638 | -94.65089 | 13023 ft | 422 kts | 99° |
| 2026-05-05 17:58 | 29.76150 | -94.61737 | 13329 ft | 426 kts | 99° |
| 2026-05-05 17:58 | 29.75657 | -94.58358 | 13691 ft | 430 kts | 99° |
| 2026-05-05 17:59 | 29.75159 | -94.54965 | 14082 ft | 431 kts | 99° |
| 2026-05-05 17:59 | 29.74656 | -94.51553 | 14395 ft | 434 kts | 99° |
| 2026-05-05 17:59 | 29.74147 | -94.48118 | 14693 ft | 437 kts | 99° |
| 2026-05-05 17:59 | 29.73633 | -94.44653 | 14999 ft | 441 kts | 99° |
| 2026-05-05 18:00 | 29.73113 | -94.41156 | 15292 ft | 444 kts | 99° |
| 2026-05-05 18:00 | 29.72590 | -94.37642 | 15623 ft | 447 kts | 99° |
| 2026-05-05 18:00 | 29.72069 | -94.34157 | 15917 ft | 450 kts | 99° |
| 2026-05-05 18:00 | 29.71596 | -94.30576 | 16199 ft | 454 kts | 97° |
| 2026-05-05 18:01 | 29.71199 | -94.26960 | 16487 ft | 457 kts | 96° |
| 2026-05-05 18:01 | 29.70824 | -94.23319 | 16789 ft | 460 kts | 96° |
| 2026-05-05 18:01 | 29.70441 | -94.19657 | 17064 ft | 463 kts | 97° |
| 2026-05-05 18:01 | 29.70042 | -94.15969 | 17352 ft | 466 kts | 97° |
| 2026-05-05 18:02 | 29.69629 | -94.12257 | 17633 ft | 469 kts | 97° |
| 2026-05-05 18:02 | 29.69208 | -94.08523 | 17906 ft | 472 kts | 97° |
| 2026-05-05 18:02 | 29.68925 | -94.06033 | 18079 ft | 474 kts | 97° |
| 2026-05-05 18:02 | 29.68541 | -94.02251 | 18333 ft | 477 kts | 94° |
| 2026-05-05 18:03 | 29.68384 | -93.98436 | 18547 ft | 479 kts | 90° |
| 2026-05-05 18:03 | 29.68367 | -93.94572 | 18777 ft | 482 kts | 89° |
| 2026-05-05 18:03 | 29.68401 | -93.90714 | 19007 ft | 484 kts | 88° |
| 2026-05-05 18:03 | 29.68435 | -93.86834 | 19254 ft | 486 kts | 88° |
| 2026-05-05 18:04 | 29.68451 | -93.82940 | 19479 ft | 489 kts | 89° |
| 2026-05-05 18:04 | 29.68444 | -93.79020 | 19687 ft | 491 kts | 89° |
| 2026-05-05 18:04 | 29.68419 | -93.75074 | 19906 ft | 494 kts | 89° |
| 2026-05-05 18:04 | 29.68382 | -93.71121 | 20113 ft | 496 kts | 89° |
| 2026-05-05 18:05 | 29.68338 | -93.67188 | 20328 ft | 498 kts | 89° |
| 2026-05-05 18:05 | 29.68291 | -93.63190 | 20522 ft | 500 kts | 89° |
| 2026-05-05 18:05 | 29.68243 | -93.59176 | 20723 ft | 503 kts | 89° |
| 2026-05-05 18:05 | 29.68194 | -93.55144 | 20928 ft | 505 kts | 89° |
| 2026-05-05 18:06 | 29.68145 | -93.51103 | 21131 ft | 506 kts | 89° |
| 2026-05-05 18:06 | 29.68113 | -93.48417 | 21259 ft | 508 kts | 89° |
| 2026-05-05 18:06 | 29.68045 | -93.42966 | 21503 ft | 511 kts | 89° |
| 2026-05-05 18:06 | 29.67993 | -93.38867 | 21674 ft | 513 kts | 89° |
| 2026-05-05 18:07 | 29.67941 | -93.34809 | 21866 ft | 515 kts | 89° |
| 2026-05-05 18:07 | 29.67886 | -93.30683 | 22043 ft | 516 kts | 89° |
| 2026-05-05 18:07 | 29.67829 | -93.26536 | 22215 ft | 518 kts | 89° |
| 2026-05-05 18:07 | 29.67771 | -93.22388 | 22387 ft | 520 kts | 89° |
| 2026-05-05 18:08 | 29.67712 | -93.18224 | 22561 ft | 521 kts | 89° |
| 2026-05-05 18:08 | 29.67651 | -93.14053 | 22720 ft | 523 kts | 89° |
| 2026-05-05 18:08 | 29.67589 | -93.09856 | 22878 ft | 525 kts | 89° |
| 2026-05-05 18:08 | 29.67524 | -93.05646 | 23033 ft | 527 kts | 89° |
| 2026-05-05 18:09 | 29.67459 | -93.01426 | 23190 ft | 528 kts | 89° |
| 2026-05-05 18:09 | 29.67392 | -92.97195 | 23352 ft | 529 kts | 89° |
| 2026-05-05 18:09 | 29.67370 | -92.95817 | 23396 ft | 530 kts | 89° |
| 2026-05-05 18:09 | 29.67330 | -92.93379 | 23479 ft | 531 kts | 89° |
| 2026-05-05 18:10 | 29.67260 | -92.89126 | 23599 ft | 532 kts | 89° |
| 2026-05-05 18:10 | 29.67188 | -92.84865 | 23741 ft | 533 kts | 89° |
| 2026-05-05 18:10 | 29.67115 | -92.80595 | 23881 ft | 534 kts | 89° |
| 2026-05-05 18:10 | 29.67041 | -92.76326 | 24008 ft | 534 kts | 89° |
| 2026-05-05 18:11 | 29.66965 | -92.72052 | 24142 ft | 535 kts | 89° |
| 2026-05-05 18:11 | 29.66887 | -92.67766 | 24271 ft | 536 kts | 89° |
| 2026-05-05 18:11 | 29.66809 | -92.63476 | 24403 ft | 537 kts | 89° |
| 2026-05-05 18:11 | 29.66728 | -92.59181 | 24523 ft | 538 kts | 89° |
| 2026-05-05 18:12 | 29.66646 | -92.54879 | 24633 ft | 539 kts | 89° |
| 2026-05-05 18:12 | 29.66564 | -92.50628 | 24746 ft | 539 kts | 89° |
| 2026-05-05 18:12 | 29.66480 | -92.46312 | 24875 ft | 540 kts | 89° |
| 2026-05-05 18:12 | 29.66394 | -92.41988 | 25001 ft | 540 kts | 89° |
| 2026-05-05 18:13 | 29.66289 | -92.37665 | 25103 ft | 542 kts | 91° |
| 2026-05-05 18:13 | 29.65768 | -92.33361 | 25199 ft | 545 kts | 101° |
| 2026-05-05 18:13 | 29.64920 | -92.29119 | 25327 ft | 545 kts | 103° |
| 2026-05-05 18:13 | 29.63971 | -92.24896 | 25430 ft | 546 kts | 104° |
| 2026-05-05 18:14 | 29.62994 | -92.20671 | 25538 ft | 547 kts | 104° |
| 2026-05-05 18:14 | 29.62032 | -92.16442 | 25639 ft | 547 kts | 104° |
| 2026-05-05 18:14 | 29.61098 | -92.12202 | 25742 ft | 548 kts | 103° |
| 2026-05-05 18:14 | 29.60187 | -92.07945 | 25844 ft | 548 kts | 103° |
| 2026-05-05 18:15 | 29.59295 | -92.03684 | 25942 ft | 549 kts | 103° |
| 2026-05-05 18:15 | 29.58408 | -91.99412 | 26036 ft | 550 kts | 103° |
| 2026-05-05 18:15 | 29.57522 | -91.95131 | 26136 ft | 550 kts | 103° |
| 2026-05-05 18:15 | 29.56636 | -91.90858 | 26226 ft | 551 kts | 103° |
| 2026-05-05 18:16 | 29.55754 | -91.86629 | 26316 ft | 551 kts | 103° |
| 2026-05-05 18:16 | 29.54856 | -91.82338 | 26399 ft | 552 kts | 103° |
| 2026-05-05 18:16 | 29.53955 | -91.78046 | 26485 ft | 552 kts | 103° |
| 2026-05-05 18:16 | 29.53052 | -91.73758 | 26570 ft | 553 kts | 103° |
| 2026-05-05 18:17 | 29.52143 | -91.69453 | 26651 ft | 553 kts | 103° |
| 2026-05-05 18:17 | 29.51234 | -91.65156 | 26739 ft | 554 kts | 103° |
| 2026-05-05 18:17 | 29.50323 | -91.60856 | 26825 ft | 554 kts | 103° |
| 2026-05-05 18:17 | 29.49409 | -91.56547 | 26902 ft | 554 kts | 103° |
| 2026-05-05 18:18 | 29.48496 | -91.52249 | 26978 ft | 555 kts | 103° |
| 2026-05-05 18:18 | 29.47582 | -91.47951 | 27038 ft | 555 kts | 103° |
| 2026-05-05 18:18 | 29.46663 | -91.43642 | 27093 ft | 555 kts | 103° |
| 2026-05-05 18:18 | 29.45756 | -91.39395 | 27148 ft | 556 kts | 103° |
| 2026-05-05 18:19 | 29.44835 | -91.35087 | 27193 ft | 556 kts | 103° |
| 2026-05-05 18:19 | 29.43913 | -91.30780 | 27248 ft | 556 kts | 103° |
| 2026-05-05 18:19 | 29.42988 | -91.26471 | 27283 ft | 556 kts | 103° |
| 2026-05-05 18:19 | 29.42062 | -91.22163 | 27323 ft | 557 kts | 103° |
| 2026-05-05 18:20 | 29.41133 | -91.17847 | 27353 ft | 557 kts | 103° |
| 2026-05-05 18:20 | 29.40201 | -91.13526 | 27390 ft | 557 kts | 103° |
| 2026-05-05 18:20 | 29.39271 | -91.09219 | 27402 ft | 557 kts | 103° |
| 2026-05-05 18:20 | 29.38336 | -91.04901 | 27427 ft | 558 kts | 103° |
| 2026-05-05 18:21 | 29.37400 | -91.00580 | 27465 ft | 557 kts | 103° |
| 2026-05-05 18:21 | 29.36464 | -90.96270 | 27514 ft | 557 kts | 103° |
| 2026-05-05 18:21 | 29.35525 | -90.91953 | 27567 ft | 557 kts | 103° |
| 2026-05-05 18:21 | 29.34588 | -90.87647 | 27622 ft | 557 kts | 103° |
| 2026-05-05 18:22 | 29.33648 | -90.83342 | 27649 ft | 557 kts | 103° |
| 2026-05-05 18:22 | 29.32708 | -90.79038 | 27687 ft | 557 kts | 103° |
| 2026-05-05 18:22 | 29.31765 | -90.74734 | 27736 ft | 556 kts | 103° |
| 2026-05-05 18:22 | 29.30824 | -90.70441 | 27801 ft | 556 kts | 103° |
| 2026-05-05 18:23 | 29.29893 | -90.66203 | 27855 ft | 556 kts | 103° |
| 2026-05-05 18:23 | 29.28948 | -90.61905 | 27899 ft | 555 kts | 103° |
| 2026-05-05 18:23 | 29.28003 | -90.57615 | 27951 ft | 555 kts | 103° |
| 2026-05-05 18:23 | 29.27055 | -90.53320 | 27995 ft | 555 kts | 103° |
| 2026-05-05 18:24 | 29.26107 | -90.49033 | 28064 ft | 555 kts | 103° |
| 2026-05-05 18:24 | 29.24210 | -90.40470 | 28181 ft | 554 kts | 103° |
| 2026-05-05 18:25 | 29.22320 | -90.31969 | 28286 ft | 554 kts | 103° |
| 2026-05-05 18:25 | 29.20413 | -90.23418 | 28377 ft | 555 kts | 103° |
| 2026-05-05 18:26 | 29.18501 | -90.14865 | 28492 ft | 554 kts | 103° |
| 2026-05-05 18:26 | 29.16224 | -90.06439 | 28578 ft | 555 kts | 112° |
| 2026-05-05 18:27 | 29.13155 | -89.98345 | 28695 ft | 555 kts | 114° |
| 2026-05-05 18:27 | 29.10012 | -89.90280 | 28842 ft | 554 kts | 114° |
| 2026-05-05 18:28 | 29.05414 | -89.78166 | 29095 ft | 553 kts | 113° |
| 2026-05-05 18:28 | 29.02407 | -89.70151 | 29290 ft | 552 kts | 113° |
| 2026-05-05 18:29 | 29.00893 | -89.66120 | 29396 ft | 551 kts | 113° |
| 2026-05-05 18:29 | 28.99378 | -89.62096 | 29489 ft | 551 kts | 113° |
| 2026-05-05 18:29 | 28.97862 | -89.58078 | 29599 ft | 550 kts | 113° |
| 2026-05-05 18:29 | 28.96348 | -89.54071 | 29706 ft | 550 kts | 113° |
| 2026-05-05 18:30 | 28.94831 | -89.50063 | 29814 ft | 549 kts | 113° |
| 2026-05-05 18:30 | 28.93313 | -89.46059 | 29924 ft | 549 kts | 113° |
| 2026-05-05 18:30 | 28.91794 | -89.42055 | 30041 ft | 548 kts | 113° |
| 2026-05-05 18:30 | 28.90274 | -89.38053 | 30139 ft | 548 kts | 113° |
| 2026-05-05 18:31 | 28.87239 | -89.30074 | 30324 ft | 548 kts | 114° |
| 2026-05-05 18:31 | 28.84225 | -89.22163 | 30523 ft | 547 kts | 114° |
| 2026-05-05 18:32 | 28.82706 | -89.18185 | 30626 ft | 547 kts | 114° |
| 2026-05-05 18:32 | 28.81187 | -89.14210 | 30731 ft | 546 kts | 114° |
| 2026-05-05 18:32 | 28.78147 | -89.06267 | 30944 ft | 546 kts | 114° |
| 2026-05-05 18:33 | 28.76629 | -89.02308 | 31050 ft | 546 kts | 114° |
| 2026-05-05 18:33 | 28.75107 | -88.98341 | 31163 ft | 545 kts | 114° |
| 2026-05-05 18:33 | 28.73586 | -88.94380 | 31289 ft | 545 kts | 114° |
| 2026-05-05 18:33 | 28.72065 | -88.90426 | 31407 ft | 544 kts | 114° |
| 2026-05-05 18:34 | 28.70544 | -88.86475 | 31526 ft | 544 kts | 114° |
| 2026-05-05 18:34 | 28.69025 | -88.82533 | 31647 ft | 544 kts | 114° |
| 2026-05-05 18:34 | 28.67501 | -88.78583 | 31775 ft | 544 kts | 114° |
| 2026-05-05 18:34 | 28.65999 | -88.74693 | 31892 ft | 543 kts | 114° |
| 2026-05-05 18:35 | 28.64476 | -88.70754 | 32009 ft | 543 kts | 114° |
| 2026-05-05 18:35 | 28.62951 | -88.66812 | 32140 ft | 543 kts | 114° |
| 2026-05-05 18:35 | 28.61428 | -88.62881 | 32274 ft | 543 kts | 114° |
| 2026-05-05 18:35 | 28.59905 | -88.58952 | 32398 ft | 543 kts | 114° |
| 2026-05-05 18:36 | 28.58382 | -88.55027 | 32530 ft | 542 kts | 114° |
| 2026-05-05 18:36 | 28.56855 | -88.51098 | 32664 ft | 542 kts | 114° |
| 2026-05-05 18:36 | 28.55331 | -88.47179 | 32800 ft | 542 kts | 114° |
| 2026-05-05 18:36 | 28.53804 | -88.43258 | 32938 ft | 542 kts | 114° |
| 2026-05-05 18:37 | 28.52278 | -88.39341 | 33074 ft | 542 kts | 114° |
| 2026-05-05 18:37 | 28.50749 | -88.35424 | 33214 ft | 541 kts | 114° |
| 2026-05-05 18:37 | 28.49218 | -88.31502 | 33354 ft | 541 kts | 114° |
| 2026-05-05 18:37 | 28.47689 | -88.27592 | 33484 ft | 541 kts | 114° |
| 2026-05-05 18:38 | 28.46179 | -88.23734 | 33615 ft | 541 kts | 114° |
| 2026-05-05 18:38 | 28.44646 | -88.19817 | 33741 ft | 541 kts | 114° |
| 2026-05-05 18:38 | 28.43108 | -88.15896 | 33862 ft | 541 kts | 114° |
| 2026-05-05 18:38 | 28.41577 | -88.11995 | 33975 ft | 541 kts | 114° |
| 2026-05-05 18:39 | 28.40045 | -88.08093 | 34104 ft | 540 kts | 114° |
| 2026-05-05 18:39 | 28.38512 | -88.04189 | 34234 ft | 540 kts | 114° |
| 2026-05-05 18:39 | 28.37282 | -88.00682 | 34348 ft | 539 kts | 109° |
| 2026-05-05 18:40 | 28.36085 | -87.96709 | 34492 ft | 538 kts | 107° |
| 2026-05-05 18:40 | 28.34952 | -87.92669 | 34648 ft | 537 kts | 107° |
| 2026-05-05 18:40 | 28.33844 | -87.88626 | 34803 ft | 536 kts | 106° |
| 2026-05-05 18:40 | 28.32732 | -87.84586 | 34957 ft | 535 kts | 107° |
| 2026-05-05 18:41 | 28.31605 | -87.80559 | 35110 ft | 534 kts | 107° |
| 2026-05-05 18:41 | 28.30465 | -87.76555 | 35258 ft | 533 kts | 107° |
| 2026-05-05 18:41 | 28.29314 | -87.72559 | 35428 ft | 532 kts | 107° |
| 2026-05-05 18:41 | 28.28157 | -87.68576 | 35585 ft | 531 kts | 107° |
| 2026-05-05 18:42 | 28.26998 | -87.64598 | 35737 ft | 530 kts | 107° |
| 2026-05-05 18:42 | 28.25836 | -87.60612 | 35819 ft | 531 kts | 107° |
| 2026-05-05 18:42 | 28.23523 | -87.52680 | 35880 ft | 534 kts | 107° |
| 2026-05-05 18:43 | 28.21184 | -87.44668 | 36006 ft | 536 kts | 107° |
| 2026-05-05 18:43 | 28.18827 | -87.36611 | 36113 ft | 538 kts | 107° |
| 2026-05-05 18:44 | 28.16461 | -87.28546 | 36230 ft | 540 kts | 107° |
| 2026-05-05 18:44 | 28.14080 | -87.20446 | 36309 ft | 542 kts | 107° |
| 2026-05-05 18:45 | 28.11708 | -87.12399 | 36405 ft | 542 kts | 107° |
| 2026-05-05 18:45 | 28.09307 | -87.04273 | 36450 ft | 544 kts | 107° |
| 2026-05-05 18:46 | 28.06898 | -86.96138 | 36523 ft | 545 kts | 107° |
| 2026-05-05 18:46 | 28.04481 | -86.87995 | 36591 ft | 545 kts | 107° |
| 2026-05-05 18:47 | 28.02059 | -86.79853 | 36625 ft | 546 kts | 107° |
| 2026-05-05 18:47 | 27.99645 | -86.71700 | 36650 ft | 547 kts | 107° |
| 2026-05-05 18:48 | 27.97295 | -86.63558 | 36681 ft | 547 kts | 106° |
| 2026-05-05 18:48 | 27.94937 | -86.55369 | 36723 ft | 548 kts | 106° |
| 2026-05-05 18:49 | 27.92559 | -86.47162 | 36750 ft | 548 kts | 107° |
| 2026-05-05 18:49 | 27.90174 | -86.38974 | 36777 ft | 548 kts | 107° |
| 2026-05-05 18:50 | 27.88185 | -86.32164 | 36791 ft | 548 kts | 107° |
| 2026-05-05 18:50 | 27.85398 | -86.22643 | 36831 ft | 548 kts | 107° |
| 2026-05-05 18:51 | 27.83387 | -86.15787 | 36850 ft | 548 kts | 107° |
| 2026-05-05 18:51 | 27.81005 | -86.07685 | 37029 ft | 544 kts | 107° |
| 2026-05-05 18:52 | 27.78619 | -85.99590 | 37041 ft | 543 kts | 107° |
| 2026-05-05 18:52 | 27.76231 | -85.91506 | 37052 ft | 541 kts | 107° |
| 2026-05-05 18:53 | 27.73845 | -85.83450 | 37051 ft | 541 kts | 107° |
| 2026-05-05 18:53 | 27.71456 | -85.75402 | 37051 ft | 540 kts | 107° |
| 2026-05-05 18:54 | 27.69064 | -85.67360 | 37057 ft | 539 kts | 107° |
| 2026-05-05 18:54 | 27.66672 | -85.59341 | 37056 ft | 539 kts | 107° |
| 2026-05-05 18:55 | 27.64280 | -85.51337 | 37056 ft | 539 kts | 107° |
| 2026-05-05 18:55 | 27.61898 | -85.43384 | 37056 ft | 538 kts | 107° |
| 2026-05-05 18:56 | 27.59499 | -85.35382 | 37053 ft | 538 kts | 105° |
| 2026-05-05 18:56 | 27.57857 | -85.27197 | 37058 ft | 534 kts | 97° |
| 2026-05-05 18:57 | 27.56537 | -85.18963 | 37057 ft | 534 kts | 97° |
| 2026-05-05 18:57 | 27.55107 | -85.10747 | 37058 ft | 534 kts | 98° |
| 2026-05-05 18:58 | 27.53662 | -85.02535 | 37059 ft | 534 kts | 98° |
| 2026-05-05 18:58 | 27.52222 | -84.94326 | 37062 ft | 534 kts | 98° |
| 2026-05-05 18:59 | 27.50778 | -84.86110 | 37062 ft | 534 kts | 98° |
| 2026-05-05 18:59 | 27.49339 | -84.77958 | 37059 ft | 534 kts | 98° |
| 2026-05-05 19:00 | 27.47874 | -84.69768 | 37061 ft | 534 kts | 98° |
| 2026-05-05 19:00 | 27.46397 | -84.61581 | 37054 ft | 533 kts | 98° |
| 2026-05-05 19:01 | 27.44918 | -84.53393 | 37059 ft | 533 kts | 98° |
| 2026-05-05 19:01 | 27.43436 | -84.45206 | 37056 ft | 533 kts | 98° |
| 2026-05-05 19:02 | 27.41949 | -84.37020 | 37051 ft | 533 kts | 98° |
| 2026-05-05 19:02 | 27.40472 | -84.28895 | 37049 ft | 533 kts | 98° |
| 2026-05-05 19:03 | 27.38983 | -84.20709 | 37059 ft | 533 kts | 98° |
| 2026-05-05 19:03 | 27.37492 | -84.12538 | 37062 ft | 533 kts | 98° |
| 2026-05-05 19:04 | 27.35993 | -84.04361 | 37056 ft | 533 kts | 98° |
| 2026-05-05 19:04 | 27.34491 | -83.96189 | 37060 ft | 533 kts | 98° |
| 2026-05-05 19:05 | 27.32984 | -83.88022 | 37055 ft | 533 kts | 98° |
| 2026-05-05 19:05 | 27.31481 | -83.79908 | 37057 ft | 533 kts | 98° |
| 2026-05-05 19:06 | 27.29963 | -83.71738 | 37054 ft | 533 kts | 98° |
| 2026-05-05 19:06 | 27.28437 | -83.63550 | 37055 ft | 534 kts | 98° |
| 2026-05-05 19:07 | 27.26911 | -83.55391 | 37057 ft | 534 kts | 98° |
| 2026-05-05 19:07 | 27.25379 | -83.47229 | 37051 ft | 534 kts | 98° |
| 2026-05-05 19:08 | 27.23843 | -83.39073 | 37055 ft | 534 kts | 98° |
| 2026-05-05 19:08 | 27.22313 | -83.30971 | 37053 ft | 533 kts | 98° |
| 2026-05-05 19:09 | 27.20768 | -83.22817 | 37051 ft | 533 kts | 98° |
| 2026-05-05 19:09 | 27.20085 | -83.19226 | 37052 ft | 533 kts | 98° |
| 2026-05-05 19:10 | 27.18534 | -83.11076 | 37051 ft | 533 kts | 98° |
| 2026-05-05 19:10 | 27.16983 | -83.02927 | 37055 ft | 533 kts | 98° |
| 2026-05-05 19:11 | 27.15439 | -82.94789 | 37056 ft | 533 kts | 98° |
| 2026-05-05 19:11 | 27.13614 | -82.86710 | 37044 ft | 537 kts | 109° |
| 2026-05-05 19:12 | 27.10124 | -82.79351 | 37043 ft | 540 kts | 127° |
| 2026-05-05 19:12 | 27.05346 | -82.72838 | 37048 ft | 540 kts | 130° |
| 2026-05-05 19:13 | 27.00494 | -82.66400 | 37043 ft | 540 kts | 130° |
| 2026-05-05 19:13 | 26.95702 | -82.59909 | 37039 ft | 540 kts | 129° |
| 2026-05-05 19:14 | 26.90937 | -82.53392 | 37042 ft | 540 kts | 129° |
| 2026-05-05 19:14 | 26.86193 | -82.46914 | 37038 ft | 540 kts | 129° |
| 2026-05-05 19:15 | 26.81420 | -82.40416 | 37042 ft | 540 kts | 129° |
| 2026-05-05 19:15 | 26.76641 | -82.33922 | 37041 ft | 540 kts | 129° |
| 2026-05-05 19:16 | 26.71852 | -82.27438 | 37041 ft | 540 kts | 129° |
| 2026-05-05 19:16 | 26.67357 | -82.21368 | 37037 ft | 540 kts | 129° |
| 2026-05-05 19:17 | 26.62563 | -82.14899 | 37028 ft | 539 kts | 129° |
| 2026-05-05 19:17 | 26.57802 | -82.08481 | 37024 ft | 539 kts | 129° |
| 2026-05-05 19:18 | 26.53008 | -82.02028 | 37023 ft | 539 kts | 129° |
| 2026-05-05 19:18 | 26.48219 | -81.95590 | 37023 ft | 539 kts | 129° |
| 2026-05-05 19:19 | 26.43427 | -81.89158 | 37022 ft | 538 kts | 129° |
| 2026-05-05 19:19 | 26.38631 | -81.82730 | 37026 ft | 538 kts | 129° |
| 2026-05-05 19:20 | 26.33872 | -81.76360 | 37034 ft | 538 kts | 129° |
| 2026-05-05 19:20 | 26.29074 | -81.69947 | 37035 ft | 538 kts | 129° |
| 2026-05-05 19:21 | 26.24270 | -81.63535 | 37035 ft | 538 kts | 129° |
| 2026-05-05 19:21 | 26.19467 | -81.57132 | 37029 ft | 538 kts | 129° |
| 2026-05-05 19:22 | 26.14670 | -81.50746 | 37026 ft | 537 kts | 129° |
| 2026-05-05 19:22 | 26.10616 | -81.43874 | 37022 ft | 533 kts | 113° |
| 2026-05-05 19:23 | 26.09218 | -81.40066 | 37007 ft | 528 kts | 102° |
| 2026-05-05 19:23 | 26.08212 | -81.36137 | 37032 ft | 527 kts | 101° |
| 2026-05-05 19:23 | 26.06297 | -81.28264 | 37013 ft | 527 kts | 101° |
| 2026-05-05 19:24 | 26.04341 | -81.20392 | 37017 ft | 527 kts | 102° |
| 2026-05-05 19:24 | 26.02346 | -81.12593 | 37014 ft | 528 kts | 102° |
| 2026-05-05 19:25 | 26.00316 | -81.04746 | 37015 ft | 528 kts | 102° |
| 2026-05-05 19:25 | 25.98287 | -80.96917 | 37013 ft | 527 kts | 102° |
| 2026-05-05 19:26 | 25.96257 | -80.89086 | 37011 ft | 527 kts | 102° |
| 2026-05-05 19:26 | 25.94220 | -80.81240 | 37014 ft | 529 kts | 102° |
| 2026-05-05 19:27 | 25.92175 | -80.73385 | 37006 ft | 528 kts | 102° |
| 2026-05-05 19:27 | 25.90239 | -80.65968 | 37016 ft | 528 kts | 102° |
| 2026-05-05 19:28 | 25.88191 | -80.58140 | 37013 ft | 527 kts | 102° |
| 2026-05-05 19:28 | 25.86356 | -80.51142 | 37027 ft | 528 kts | 102° |
| 2026-05-05 19:29 | 25.84330 | -80.43430 | 37031 ft | 528 kts | 102° |
| 2026-05-05 19:29 | 25.82260 | -80.35571 | 37029 ft | 528 kts | 102° |
| 2026-05-05 19:30 | 25.80194 | -80.27745 | 37029 ft | 527 kts | 102° |
| 2026-05-05 19:30 | 25.78141 | -80.19987 | 37028 ft | 527 kts | 102° |
| 2026-05-05 19:31 | 25.76073 | -80.12186 | 37038 ft | 527 kts | 102° |
| 2026-05-05 19:31 | 25.73996 | -80.04382 | 37028 ft | 527 kts | 102° |
| 2026-05-05 19:32 | 25.71911 | -79.96589 | 37034 ft | 527 kts | 102° |
| 2026-05-05 19:32 | 25.69823 | -79.88798 | 37038 ft | 527 kts | 102° |
| 2026-05-05 19:33 | 25.67732 | -79.81010 | 37036 ft | 526 kts | 102° |
| 2026-05-05 19:33 | 25.65654 | -79.73284 | 37033 ft | 526 kts | 102° |
| 2026-05-05 19:34 | 25.63644 | -79.65488 | 37033 ft | 524 kts | 99° |
| 2026-05-05 19:35 | 25.61140 | -79.53719 | 37031 ft | 523 kts | 98° |
| 2026-05-05 19:35 | 25.59461 | -79.45874 | 37033 ft | 523 kts | 98° |
| 2026-05-05 19:36 | 25.57743 | -79.38046 | 37029 ft | 523 kts | 98° |
| 2026-05-05 19:36 | 25.56018 | -79.30215 | 37030 ft | 523 kts | 99° |
| 2026-05-05 19:37 | 25.53462 | -79.22678 | 37033 ft | 530 kts | 113° |
| 2026-05-05 19:37 | 25.50086 | -79.15413 | 37026 ft | 531 kts | 114° |
| 2026-05-05 19:38 | 25.46678 | -79.08156 | 37035 ft | 531 kts | 114° |
| 2026-05-05 19:38 | 25.43323 | -79.00871 | 37031 ft | 530 kts | 113° |
| 2026-05-05 19:39 | 25.40560 | -78.94811 | 37029 ft | 530 kts | 113° |
| 2026-05-05 19:39 | 25.37239 | -78.87522 | 37024 ft | 530 kts | 113° |
| 2026-05-05 19:40 | 25.33916 | -78.80250 | 37022 ft | 530 kts | 113° |
| 2026-05-05 19:40 | 25.30588 | -78.72987 | 37023 ft | 529 kts | 113° |
| 2026-05-05 19:41 | 25.27256 | -78.65731 | 37023 ft | 529 kts | 113° |
| 2026-05-05 19:41 | 25.23923 | -78.58482 | 37024 ft | 529 kts | 113° |
| 2026-05-05 19:42 | 25.20588 | -78.51239 | 37024 ft | 528 kts | 113° |
| 2026-05-05 19:42 | 25.17269 | -78.44043 | 37024 ft | 528 kts | 113° |
| 2026-05-05 19:43 | 25.13935 | -78.36827 | 37020 ft | 528 kts | 113° |
| 2026-05-05 19:43 | 25.12435 | -78.33584 | 37022 ft | 528 kts | 113° |
| 2026-05-05 19:44 | 25.09091 | -78.26363 | 37021 ft | 527 kts | 113° |
| 2026-05-05 19:44 | 25.05749 | -78.19157 | 37025 ft | 527 kts | 113° |
| 2026-05-05 19:45 | 25.02408 | -78.11964 | 37023 ft | 527 kts | 113° |
| 2026-05-05 19:45 | 24.99084 | -78.04819 | 37019 ft | 527 kts | 113° |
| 2026-05-05 19:46 | 24.95737 | -77.97636 | 37026 ft | 527 kts | 113° |
| 2026-05-05 19:46 | 24.92389 | -77.90462 | 37019 ft | 527 kts | 113° |
| 2026-05-05 19:47 | 24.89045 | -77.83309 | 37028 ft | 527 kts | 113° |
| 2026-05-05 19:47 | 24.85688 | -77.76138 | 37028 ft | 527 kts | 113° |
| 2026-05-05 19:48 | 24.82328 | -77.68971 | 37027 ft | 526 kts | 113° |
| 2026-05-05 19:48 | 24.78967 | -77.61812 | 37026 ft | 527 kts | 113° |
| 2026-05-05 19:49 | 24.75598 | -77.54647 | 37033 ft | 527 kts | 113° |
| 2026-05-05 19:49 | 24.72272 | -77.47470 | 37027 ft | 526 kts | 112° |
| 2026-05-05 19:50 | 24.69018 | -77.40311 | 37025 ft | 526 kts | 112° |
| 2026-05-05 19:50 | 24.65742 | -77.33107 | 37023 ft | 527 kts | 112° |
| 2026-05-05 19:51 | 24.62452 | -77.25908 | 37023 ft | 527 kts | 112° |
| 2026-05-05 19:51 | 24.59153 | -77.18716 | 37020 ft | 527 kts | 112° |
| 2026-05-05 19:52 | 24.55848 | -77.11523 | 37021 ft | 527 kts | 112° |
| 2026-05-05 19:52 | 24.52533 | -77.04320 | 37021 ft | 527 kts | 112° |
| 2026-05-05 19:53 | 24.49221 | -76.97132 | 37022 ft | 528 kts | 112° |
| 2026-05-05 19:53 | 24.45924 | -76.89988 | 37028 ft | 528 kts | 112° |
| 2026-05-05 19:54 | 24.42601 | -76.82800 | 37014 ft | 528 kts | 112° |
| 2026-05-05 19:54 | 24.39273 | -76.75611 | 37020 ft | 528 kts | 112° |
| 2026-05-05 19:55 | 24.35940 | -76.68423 | 37024 ft | 528 kts | 112° |
| 2026-05-05 19:55 | 24.32603 | -76.61237 | 37023 ft | 528 kts | 112° |
| 2026-05-05 19:56 | 24.29266 | -76.54064 | 37021 ft | 528 kts | 112° |
| 2026-05-05 19:56 | 24.25924 | -76.46888 | 37025 ft | 528 kts | 112° |
| 2026-05-05 19:57 | 24.22576 | -76.39713 | 37029 ft | 528 kts | 112° |
| 2026-05-05 19:57 | 24.19230 | -76.32550 | 37027 ft | 528 kts | 112° |
| 2026-05-05 19:58 | 24.15900 | -76.25436 | 37026 ft | 528 kts | 112° |
| 2026-05-05 19:58 | 24.12547 | -76.18282 | 37038 ft | 528 kts | 113° |
| 2026-05-05 19:59 | 24.09198 | -76.11146 | 37031 ft | 527 kts | 113° |
| 2026-05-05 19:59 | 24.05841 | -76.04004 | 37030 ft | 527 kts | 113° |
| 2026-05-05 20:00 | 24.02482 | -75.96870 | 37026 ft | 527 kts | 113° |
| 2026-05-05 20:00 | 23.99118 | -75.89735 | 37028 ft | 527 kts | 113° |
| 2026-05-05 20:01 | 23.95754 | -75.82612 | 37034 ft | 527 kts | 113° |
| 2026-05-05 20:01 | 23.92391 | -75.75501 | 37031 ft | 527 kts | 113° |
| 2026-05-05 20:02 | 23.89043 | -75.68432 | 37034 ft | 526 kts | 113° |
| 2026-05-05 20:02 | 23.85672 | -75.61324 | 37031 ft | 526 kts | 114° |
| 2026-05-05 20:03 | 23.82298 | -75.54222 | 37029 ft | 526 kts | 114° |
| 2026-05-05 20:03 | 23.78924 | -75.47130 | 37036 ft | 526 kts | 114° |
| 2026-05-05 20:04 | 23.75547 | -75.40042 | 37038 ft | 526 kts | 114° |
| 2026-05-05 20:04 | 23.72191 | -75.33008 | 37034 ft | 525 kts | 114° |
| 2026-05-05 20:05 | 23.68808 | -75.25930 | 37037 ft | 525 kts | 114° |
| 2026-05-05 20:05 | 23.65428 | -75.18867 | 37032 ft | 524 kts | 114° |
| 2026-05-05 20:06 | 23.62074 | -75.11870 | 37039 ft | 523 kts | 114° |
| 2026-05-05 20:06 | 23.58703 | -75.04845 | 37030 ft | 522 kts | 115° |
| 2026-05-05 20:07 | 23.55333 | -74.97834 | 37037 ft | 521 kts | 115° |
| 2026-05-05 20:07 | 23.51969 | -74.90845 | 37034 ft | 520 kts | 115° |
| 2026-05-05 20:08 | 23.48623 | -74.83902 | 37036 ft | 519 kts | 115° |
| 2026-05-05 20:08 | 23.45265 | -74.76947 | 37034 ft | 518 kts | 115° |
| 2026-05-05 20:09 | 23.41916 | -74.70018 | 37035 ft | 517 kts | 115° |
| 2026-05-05 20:09 | 23.38567 | -74.63100 | 37035 ft | 516 kts | 115° |
| 2026-05-05 20:10 | 23.35218 | -74.56192 | 37033 ft | 515 kts | 116° |
| 2026-05-05 20:10 | 23.31874 | -74.49303 | 37036 ft | 514 kts | 116° |
| 2026-05-05 20:11 | 23.28529 | -74.42423 | 37035 ft | 513 kts | 116° |
| 2026-05-05 20:11 | 23.25190 | -74.35564 | 37035 ft | 513 kts | 116° |
| 2026-05-05 20:12 | 23.21852 | -74.28717 | 37029 ft | 512 kts | 116° |
| 2026-05-05 20:12 | 23.18535 | -74.21922 | 37034 ft | 512 kts | 116° |
| 2026-05-05 20:13 | 23.15196 | -74.15091 | 37031 ft | 511 kts | 116° |
| 2026-05-05 20:13 | 23.11856 | -74.08268 | 37034 ft | 511 kts | 116° |
| 2026-05-05 20:14 | 23.08511 | -74.01444 | 37033 ft | 510 kts | 117° |
| 2026-05-05 20:14 | 23.05172 | -73.94641 | 37031 ft | 510 kts | 117° |
| 2026-05-05 20:15 | 23.01835 | -73.87852 | 37031 ft | 509 kts | 117° |
| 2026-05-05 20:15 | 22.98522 | -73.81121 | 37033 ft | 509 kts | 117° |
| 2026-05-05 20:16 | 22.95183 | -73.74347 | 37031 ft | 508 kts | 117° |
| 2026-05-05 20:16 | 22.91850 | -73.67593 | 37033 ft | 507 kts | 117° |
| 2026-05-05 20:17 | 22.88519 | -73.60854 | 37031 ft | 506 kts | 117° |
| 2026-05-05 20:17 | 22.85193 | -73.54132 | 37033 ft | 505 kts | 117° |
| 2026-05-05 20:18 | 22.81869 | -73.47424 | 37033 ft | 505 kts | 117° |
| 2026-05-05 20:18 | 22.78544 | -73.40724 | 37038 ft | 504 kts | 117° |
| 2026-05-05 20:19 | 22.75248 | -73.34090 | 37039 ft | 503 kts | 118° |
| 2026-05-05 20:19 | 22.71926 | -73.27412 | 37035 ft | 502 kts | 118° |
| 2026-05-05 20:20 | 22.68610 | -73.20754 | 37037 ft | 502 kts | 118° |
| 2026-05-05 20:20 | 22.65295 | -73.14109 | 37038 ft | 501 kts | 118° |
| 2026-05-05 20:21 | 22.61983 | -73.07477 | 37028 ft | 500 kts | 118° |
| 2026-05-05 20:21 | 22.58672 | -73.00857 | 37028 ft | 500 kts | 118° |
| 2026-05-05 20:22 | 22.55383 | -72.94289 | 37031 ft | 499 kts | 118° |
| 2026-05-05 20:22 | 22.52076 | -72.87693 | 37033 ft | 498 kts | 118° |
| 2026-05-05 20:23 | 22.48771 | -72.81110 | 37025 ft | 498 kts | 118° |
| 2026-05-05 20:23 | 22.45466 | -72.74536 | 37030 ft | 497 kts | 119° |
| 2026-05-05 20:24 | 22.42153 | -72.67955 | 37035 ft | 497 kts | 119° |
| 2026-05-05 20:24 | 22.38851 | -72.61402 | 37035 ft | 496 kts | 119° |
| 2026-05-05 20:25 | 22.35545 | -72.54850 | 37033 ft | 496 kts | 119° |
| 2026-05-05 20:25 | 22.32264 | -72.48357 | 37030 ft | 496 kts | 119° |
| 2026-05-05 20:26 | 22.28960 | -72.41827 | 37025 ft | 495 kts | 119° |
| 2026-05-05 20:26 | 22.25654 | -72.35300 | 37030 ft | 495 kts | 119° |
| 2026-05-05 20:27 | 22.22348 | -72.28781 | 37039 ft | 494 kts | 119° |
| 2026-05-05 20:27 | 22.19600 | -72.23369 | 37023 ft | 494 kts | 120° |
| 2026-05-05 20:28 | 22.16293 | -72.16864 | 37022 ft | 494 kts | 120° |
| 2026-05-05 20:28 | 22.12980 | -72.10355 | 37033 ft | 494 kts | 120° |
| 2026-05-05 20:29 | 22.09673 | -72.03865 | 37031 ft | 494 kts | 120° |
| 2026-05-05 20:29 | 22.06357 | -71.97367 | 37025 ft | 494 kts | 120° |
| 2026-05-05 20:30 | 22.03045 | -71.90883 | 37030 ft | 493 kts | 120° |
| 2026-05-05 20:30 | 21.99730 | -71.84403 | 37031 ft | 493 kts | 120° |
| 2026-05-05 20:31 | 21.96437 | -71.77972 | 37031 ft | 493 kts | 120° |
| 2026-05-05 20:31 | 21.93118 | -71.71501 | 37033 ft | 493 kts | 120° |
| 2026-05-05 20:32 | 21.91344 | -71.68043 | 37033 ft | 493 kts | 120° |
| 2026-05-05 20:32 | 21.88190 | -71.61905 | 37035 ft | 493 kts | 120° |
| 2026-05-05 20:33 | 21.84863 | -71.55436 | 37035 ft | 493 kts | 120° |
| 2026-05-05 20:33 | 21.81538 | -71.48979 | 37031 ft | 493 kts | 120° |
| 2026-05-05 20:34 | 21.78214 | -71.42531 | 37035 ft | 493 kts | 120° |
| 2026-05-05 20:34 | 21.74888 | -71.36088 | 37034 ft | 492 kts | 120° |
| 2026-05-05 20:35 | 21.71578 | -71.29683 | 37036 ft | 492 kts | 120° |
| 2026-05-05 20:35 | 21.68248 | -71.23248 | 37033 ft | 492 kts | 121° |
| 2026-05-05 20:36 | 21.64919 | -71.16821 | 37033 ft | 492 kts | 121° |
| 2026-05-05 20:36 | 21.61588 | -71.10397 | 37036 ft | 491 kts | 121° |
| 2026-05-05 20:37 | 21.58255 | -71.03978 | 37035 ft | 491 kts | 121° |
| 2026-05-05 20:37 | 21.54611 | -70.97787 | 37036 ft | 489 kts | 126° |
| 2026-05-05 20:38 | 21.50738 | -70.91828 | 37034 ft | 489 kts | 127° |
| 2026-05-05 20:38 | 21.46837 | -70.85837 | 37036 ft | 489 kts | 127° |
| 2026-05-05 20:39 | 21.42967 | -70.79813 | 37037 ft | 490 kts | 126° |
| 2026-05-05 20:39 | 21.39115 | -70.73776 | 37030 ft | 490 kts | 126° |
| 2026-05-05 20:40 | 21.35268 | -70.67744 | 37031 ft | 490 kts | 126° |
| 2026-05-05 20:40 | 21.31414 | -70.61714 | 37031 ft | 490 kts | 126° |
| 2026-05-05 20:41 | 21.27558 | -70.55689 | 37031 ft | 490 kts | 127° |
| 2026-05-05 20:41 | 21.23725 | -70.49708 | 37029 ft | 490 kts | 127° |
| 2026-05-05 20:42 | 21.19871 | -70.43700 | 37031 ft | 489 kts | 127° |
| 2026-05-05 20:42 | 21.16007 | -70.37682 | 37031 ft | 489 kts | 127° |
| 2026-05-05 20:43 | 21.12150 | -70.31683 | 37033 ft | 489 kts | 127° |
| 2026-05-05 20:43 | 21.08295 | -70.25693 | 37036 ft | 488 kts | 127° |
| 2026-05-05 20:44 | 21.04435 | -70.19700 | 37037 ft | 488 kts | 127° |
| 2026-05-05 20:44 | 21.00580 | -70.13722 | 37036 ft | 487 kts | 127° |
| 2026-05-05 20:45 | 20.94823 | -70.04808 | 37033 ft | 487 kts | 127° |
| 2026-05-05 20:45 | 20.90962 | -69.98837 | 37036 ft | 487 kts | 127° |
| 2026-05-05 20:46 | 20.87109 | -69.92885 | 37036 ft | 486 kts | 127° |
| 2026-05-05 20:46 | 20.83253 | -69.86933 | 37036 ft | 486 kts | 127° |
| 2026-05-05 20:47 | 20.79424 | -69.81030 | 37039 ft | 486 kts | 127° |
| 2026-05-05 20:47 | 20.75569 | -69.75092 | 37032 ft | 486 kts | 127° |
| 2026-05-05 20:48 | 20.71712 | -69.69160 | 37037 ft | 486 kts | 127° |
| 2026-05-05 20:48 | 20.67854 | -69.63229 | 37034 ft | 486 kts | 127° |
| 2026-05-05 20:49 | 20.63984 | -69.57288 | 37034 ft | 486 kts | 127° |
| 2026-05-05 20:49 | 20.60144 | -69.51398 | 37035 ft | 486 kts | 127° |
| 2026-05-05 20:50 | 20.56282 | -69.45481 | 37036 ft | 486 kts | 127° |
| 2026-05-05 20:50 | 20.52413 | -69.39560 | 37038 ft | 486 kts | 127° |
| 2026-05-05 20:51 | 20.48542 | -69.33640 | 37038 ft | 486 kts | 127° |
| 2026-05-05 20:51 | 20.44669 | -69.27724 | 37036 ft | 487 kts | 128° |
| 2026-05-05 20:52 | 20.40787 | -69.21800 | 37040 ft | 487 kts | 128° |
| 2026-05-05 20:52 | 20.36907 | -69.15885 | 37040 ft | 487 kts | 128° |
| 2026-05-05 20:53 | 20.33025 | -69.09974 | 37041 ft | 487 kts | 128° |
| 2026-05-05 20:53 | 20.29155 | -69.04086 | 37040 ft | 487 kts | 128° |
| 2026-05-05 20:54 | 20.25265 | -68.98175 | 37044 ft | 487 kts | 128° |
| 2026-05-05 20:54 | 20.21377 | -68.92271 | 37041 ft | 487 kts | 128° |
| 2026-05-05 20:55 | 20.17483 | -68.86365 | 37042 ft | 487 kts | 128° |
| 2026-05-05 20:55 | 20.13589 | -68.80464 | 37044 ft | 487 kts | 128° |
| 2026-05-05 20:56 | 20.09696 | -68.74569 | 37042 ft | 486 kts | 128° |
| 2026-05-05 20:56 | 20.05871 | -68.68684 | 37046 ft | 487 kts | 127° |
| 2026-05-05 20:57 | 20.02160 | -68.62651 | 37046 ft | 487 kts | 126° |
| 2026-05-05 20:57 | 19.98466 | -68.56604 | 37047 ft | 487 kts | 126° |
| 2026-05-05 20:58 | 19.94753 | -68.50577 | 37045 ft | 487 kts | 127° |
| 2026-05-05 20:58 | 19.91034 | -68.44572 | 37047 ft | 486 kts | 127° |
| 2026-05-05 20:59 | 19.87331 | -68.38604 | 37047 ft | 486 kts | 127° |
| 2026-05-05 20:59 | 19.83604 | -68.32603 | 37047 ft | 487 kts | 127° |
| 2026-05-05 21:00 | 19.79871 | -68.26597 | 37049 ft | 487 kts | 127° |
| 2026-05-05 21:00 | 19.76138 | -68.20595 | 37050 ft | 487 kts | 127° |
| 2026-05-05 21:01 | 19.72399 | -68.14590 | 37052 ft | 487 kts | 127° |
| 2026-05-05 21:01 | 19.69293 | -68.09607 | 37053 ft | 487 kts | 127° |
| 2026-05-05 21:02 | 19.66928 | -68.05815 | 37051 ft | 487 kts | 127° |
| 2026-05-05 21:02 | 19.63209 | -67.99857 | 37045 ft | 487 kts | 127° |
| 2026-05-05 21:03 | 19.59463 | -67.93861 | 37054 ft | 487 kts | 127° |
| 2026-05-05 21:03 | 19.55712 | -67.87863 | 37058 ft | 487 kts | 127° |
| 2026-05-05 21:04 | 19.51961 | -67.81870 | 37053 ft | 487 kts | 128° |
| 2026-05-05 21:04 | 19.48202 | -67.75874 | 36600 ft | 493 kts | 127° |
| 2026-05-05 21:05 | 19.46296 | -67.72847 | 35903 ft | 493 kts | 127° |
| 2026-05-05 21:05 | 19.44386 | -67.69816 | 35159 ft | 494 kts | 127° |
| 2026-05-05 21:05 | 19.42478 | -67.66787 | 34392 ft | 495 kts | 126° |
| 2026-05-05 21:05 | 19.40561 | -67.63748 | 33510 ft | 497 kts | 126° |
| 2026-05-05 21:06 | 19.38640 | -67.60700 | 32651 ft | 498 kts | 126° |
| 2026-05-05 21:06 | 19.36741 | -67.57687 | 31800 ft | 499 kts | 126° |
| 2026-05-05 21:06 | 19.34807 | -67.54622 | 30931 ft | 500 kts | 126° |
| 2026-05-05 21:06 | 19.32868 | -67.51550 | 29983 ft | 503 kts | 126° |
| 2026-05-05 21:07 | 19.30918 | -67.48463 | 28923 ft | 505 kts | 126° |
| 2026-05-05 21:07 | 19.28971 | -67.45381 | 28261 ft | 499 kts | 126° |
| 2026-05-05 21:07 | 19.27054 | -67.42347 | 27617 ft | 493 kts | 125° |
| 2026-05-05 21:07 | 19.25160 | -67.39348 | 27015 ft | 487 kts | 125° |
| 2026-05-05 21:08 | 19.23285 | -67.36383 | 26369 ft | 482 kts | 125° |
| 2026-05-05 21:08 | 19.21423 | -67.33437 | 25727 ft | 478 kts | 125° |
| 2026-05-05 21:08 | 19.19581 | -67.30525 | 25061 ft | 475 kts | 125° |
| 2026-05-05 21:08 | 19.17746 | -67.27627 | 24403 ft | 473 kts | 124° |
| 2026-05-05 21:09 | 19.15948 | -67.24785 | 23754 ft | 470 kts | 124° |
| 2026-05-05 21:09 | 19.14130 | -67.21916 | 23005 ft | 468 kts | 124° |
| 2026-05-05 21:09 | 19.12328 | -67.19071 | 22325 ft | 463 kts | 124° |
| 2026-05-05 21:09 | 19.10539 | -67.16248 | 21668 ft | 459 kts | 124° |
| 2026-05-05 21:10 | 19.08772 | -67.13460 | 21030 ft | 454 kts | 124° |
| 2026-05-05 21:10 | 19.07017 | -67.10695 | 20406 ft | 450 kts | 124° |
| 2026-05-05 21:10 | 19.05280 | -67.07958 | 19776 ft | 447 kts | 124° |
| 2026-05-05 21:10 | 19.03553 | -67.05238 | 19142 ft | 444 kts | 124° |
| 2026-05-05 21:11 | 19.01838 | -67.02537 | 18520 ft | 441 kts | 125° |
| 2026-05-05 21:11 | 19.00134 | -66.99858 | 17843 ft | 438 kts | 124° |
| 2026-05-05 21:11 | 18.98441 | -66.97194 | 17202 ft | 434 kts | 124° |
| 2026-05-05 21:11 | 18.96765 | -66.94559 | 16556 ft | 429 kts | 124° |
| 2026-05-05 21:12 | 18.95105 | -66.91951 | 15948 ft | 425 kts | 124° |
| 2026-05-05 21:12 | 18.93486 | -66.89407 | 15364 ft | 421 kts | 124° |
| 2026-05-05 21:12 | 18.91859 | -66.86854 | 14770 ft | 417 kts | 124° |
| 2026-05-05 21:12 | 18.90250 | -66.84328 | 14189 ft | 413 kts | 124° |
| 2026-05-05 21:13 | 18.88653 | -66.81822 | 13574 ft | 409 kts | 124° |
| 2026-05-05 21:13 | 18.87071 | -66.79342 | 12956 ft | 404 kts | 124° |
| 2026-05-05 21:13 | 18.85510 | -66.76893 | 12368 ft | 400 kts | 124° |
| 2026-05-05 21:13 | 18.83965 | -66.74472 | 11839 ft | 394 kts | 124° |
| 2026-05-05 21:14 | 18.82967 | -66.72908 | 11759 ft | 383 kts | 124° |
| 2026-05-05 21:14 | 18.81504 | -66.70616 | 11576 ft | 369 kts | 124° |
| 2026-05-05 21:14 | 18.80096 | -66.68410 | 11417 ft | 355 kts | 124° |
| 2026-05-05 21:14 | 18.78739 | -66.66285 | 11265 ft | 343 kts | 124° |
| 2026-05-05 21:15 | 18.77427 | -66.64234 | 11129 ft | 331 kts | 124° |
| 2026-05-05 21:15 | 18.76129 | -66.62276 | 11015 ft | 319 kts | 128° |
| 2026-05-05 21:15 | 18.74773 | -66.60473 | 10932 ft | 306 kts | 130° |
| 2026-05-05 21:15 | 18.73456 | -66.58794 | 10855 ft | 295 kts | 130° |
| 2026-05-05 21:16 | 18.72167 | -66.57160 | 10728 ft | 285 kts | 130° |
| 2026-05-05 21:16 | 18.70909 | -66.55557 | 10478 ft | 281 kts | 130° |
| 2026-05-05 21:16 | 18.69667 | -66.53965 | 10176 ft | 280 kts | 130° |
| 2026-05-05 21:16 | 18.68437 | -66.52383 | 9880 ft | 278 kts | 130° |
| 2026-05-05 21:17 | 18.67221 | -66.50814 | 9567 ft | 276 kts | 130° |
| 2026-05-05 21:17 | 18.66010 | -66.49248 | 9219 ft | 275 kts | 130° |
| 2026-05-05 21:17 | 18.64803 | -66.47685 | 8878 ft | 274 kts | 130° |
| 2026-05-05 21:17 | 18.63602 | -66.46129 | 8558 ft | 273 kts | 130° |
| 2026-05-05 21:18 | 18.62407 | -66.44582 | 8239 ft | 271 kts | 130° |
| 2026-05-05 21:18 | 18.61218 | -66.43040 | 7925 ft | 270 kts | 130° |
| 2026-05-05 21:18 | 18.60032 | -66.41503 | 7626 ft | 269 kts | 130° |
| 2026-05-05 21:18 | 18.58867 | -66.39991 | 7311 ft | 268 kts | 130° |
| 2026-05-05 21:19 | 18.57691 | -66.38467 | 7003 ft | 267 kts | 130° |
| 2026-05-05 21:19 | 18.56521 | -66.36950 | 6711 ft | 266 kts | 130° |
| 2026-05-05 21:19 | 18.55353 | -66.35438 | 6408 ft | 266 kts | 130° |
| 2026-05-05 21:19 | 18.54191 | -66.33933 | 6119 ft | 264 kts | 130° |
| 2026-05-05 21:20 | 18.53049 | -66.32453 | 5866 ft | 256 kts | 130° |
| 2026-05-05 21:20 | 18.51940 | -66.31016 | 5588 ft | 248 kts | 129° |
| 2026-05-05 21:20 | 18.50873 | -66.29633 | 5311 ft | 239 kts | 129° |
| 2026-05-05 21:20 | 18.49843 | -66.28300 | 5008 ft | 231 kts | 129° |
| 2026-05-05 21:21 | 18.48844 | -66.27005 | 4706 ft | 224 kts | 129° |
| 2026-05-05 21:21 | 18.47878 | -66.25756 | 4391 ft | 216 kts | 129° |
| 2026-05-05 21:21 | 18.46948 | -66.24553 | 4135 ft | 207 kts | 129° |
| 2026-05-05 21:21 | 18.46069 | -66.23417 | 3938 ft | 199 kts | 130° |
| 2026-05-05 21:22 | 18.45204 | -66.22299 | 3687 ft | 194 kts | 130° |
| 2026-05-05 21:22 | 18.44375 | -66.21228 | 3506 ft | 183 kts | 130° |
| 2026-05-05 21:22 | 18.43771 | -66.20087 | 3299 ft | 183 kts | 98° |
| 2026-05-05 21:22 | 18.43728 | -66.18755 | 3112 ft | 183 kts | 99° |
| 2026-05-05 21:23 | 18.43537 | -66.17437 | 2886 ft | 180 kts | 100° |
| 2026-05-05 21:23 | 18.43427 | -66.16128 | 2655 ft | 178 kts | 96° |
| 2026-05-05 21:23 | 18.43399 | -66.14836 | 2436 ft | 176 kts | 95° |
| 2026-05-05 21:23 | 18.43389 | -66.13524 | 2179 ft | 177 kts | 92° |
| 2026-05-05 21:24 | 18.43389 | -66.12253 | 1947 ft | 174 kts | 94° |
| 2026-05-05 21:24 | 18.43384 | -66.10970 | 1726 ft | 178 kts | 94° |
| 2026-05-05 21:24 | 18.43378 | -66.09713 | 1503 ft | 166 kts | 92° |
| 2026-05-05 21:24 | 18.43376 | -66.08531 | 1290 ft | 158 kts | 93° |
| 2026-05-05 21:25 | 18.43370 | -66.07387 | 1098 ft | 160 kts | 94° |
| 2026-05-05 21:25 | 18.43370 | -66.06236 | 902 ft | 155 kts | 94° |
| 2026-05-05 21:25 | 18.43379 | -66.05172 | 806 ft | 148 kts | 93° |
| 2026-05-05 21:25 | 18.43384 | -66.04094 | 558 ft | 150 kts | 93° |
| 2026-05-05 21:26 | 18.43384 | -66.03013 | 319 ft | 145 kts | 96° |
| 2026-05-05 21:26 | 18.43371 | -66.01973 | 118 ft | 140 kts | 92° |
| 2026-05-05 21:26 | 18.43370 | -66.00934 | -11 ft | 139 kts | 94° |
| 2026-05-05 21:26 | 18.43355 | -66.00019 | -36 ft | 111 kts | 91° |
| 2026-05-05 21:27 | 18.43414 | -65.99539 | -34 ft | 14 kts | 13° |
| 2026-05-05 21:27 | 18.43464 | -65.99567 | -43 ft | 6 kts | 286° |
| 2026-05-05 21:27 | 18.43465 | -65.99639 | -30 ft | 13 kts | 270° |
| 2026-05-05 21:27 | 18.43464 | -65.99737 | -31 ft | 13 kts | 270° |
| 2026-05-05 21:28 | 18.43465 | -65.99832 | -31 ft | 13 kts | 271° |
| 2026-05-05 21:28 | 18.43497 | -65.99910 | -34 ft | 12 kts | 337° |
| 2026-05-05 21:28 | 18.43561 | -65.99960 | -29 ft | 12 kts | 289° |
| 2026-05-05 21:28 | 18.43563 | -66.00054 | -27 ft | 13 kts | 264° |
| 2026-05-05 21:29 | 18.43569 | -66.00137 | -46 ft | 8 kts | 307° |
| 2026-05-05 21:29 | 18.43587 | -66.00143 | -33 ft | 3 kts | 354° |
| 2026-05-05 21:29 | 18.43608 | -66.00143 | -35 ft | 3 kts | 0° |
| 2026-05-05 21:29 | 18.43620 | -66.00143 | -27 ft | 0 kts | 0° |